Icard, NC

10:04 PM EDT on October 22, 2014 (GMT -0400)
River Run Circle | Change Station
CLOSE
Current Station
Personal Weather Station
Location: Hickory, NC
Elevation: 1001 ft
Nearby Weather Stations

Elev 1001 ft 35.63 °N, 81.34 °W | Updated 12 minutes ago

Clear
Clear
46.0 °F
Feels Like 46 °F
N
0.0
Wind Variable Wind from ESE

Today
High -- | Low -- °F
--% Chance of Precip.
Yesterday
High -- | Low -- °F
Precip. -- in
7:37 AM 6:40 PM
Waning Crescent, 1% visible
Pressure 30.07 in
Visibility 10.0 miles
Clouds Clear
Windchill 46 °F
Dew Point 40 °F
Humidity 79%
Rainfall 0.00 in
Snow Depth Not available.
UV 0 out of 12
Pollen 3.10 out of 12
Ozone Good
PM2.5 Good
Flu Activity Sporadic
METAR KHKY 230153Z AUTO 31003KT 10SM CLR 08/03 A3010 RMK AO2 SLP183 T00830033

More Conditions Fewer Conditions

Pressure 30.07 in
Visibility 10.0 miles
Clouds Clear
Windchill 46 °F
Dew Point 40 °F
Humidity 79%
Rainfall 0.00 in
Snow Depth Not available.
UV 0 out of 12
Pollen 3.10 out of 12
Ozone Good
PM2.5 Good
Flu Activity Sporadic
METAR KHKY 230153Z AUTO 31003KT 10SM CLR 08/03 A3010 RMK AO2 SLP183 T00830033

More Conditions Fewer Conditions

10-Day Weather Forecast

Almanac

Astronomy

Oct. 22, 2014 Rise Set
Actual Time 7:37 AM EDT 6:40 PM EDT
Civil Twilight 7:11 AM EDT 7:06 PM EDT
Nautical Twilight 6:41 AM EDT 7:36 PM EDT
Astronomical Twilight 6:12 AM EDT 8:06 PM EDT
Moon 6:20 AM EDT (10/22) 6:04 PM EDT (10/22)
Length of Visible Light 11h 54m
Length of Day
11h 03m
Tomorrow will be 2m 7s shorter.
Waning Crescent, 1% of the Moon is Illuminated
Today
Waning Crescent
Oct 23
New
Oct 30
First Quarter
Nov 6
Full
Nov 14
Last Quarter

Today's Extremes

State Highs State Lows

Community

WunderPhotos

Upload Photos

1,764,109 photos uploaded!

Nearby

Air Quality

  Air Quality AQ Index Pollutant
Yesterday Good
OZONE
Yesterday Good
PM2.5
Current Good
PM2.5
Current Good
OZONE
Wednesday Good
OZONE
Wednesday Good
PM2.5
Thursday Good
PM2.5
Thursday Good
OZONE
Friday Good
PM2.5
Friday Good
OZONE
Saturday Good
PM2.5
Saturday Good
OZONE

Snow Depth

Station Depth Elevation
No new snow has been reported.

Earthquake Activity

City Distance Mag. Time & Date
No recent earthquake activity has been reported nearby.
Minimum magnitude displayed is 2.5.

Coastal Water Temperatures

Place Temperature
No Stations Reporting

Nearby Weather Stations